sensor_id;sensor_type;location;lat;lon;timestamp;P1;durP1;ratioP1;P2;durP2;ratioP2
77123;SDS011;66079;47.646;19.130;2023-06-14T00:01:33;8.32;;;5.03;;
77123;SDS011;66079;47.646;19.130;2023-06-14T00:04:36;11.02;;;5.57;;
77123;SDS011;66079;47.646;19.130;2023-06-14T00:07:41;9.30;;;5.53;;
77123;SDS011;66079;47.646;19.130;2023-06-14T00:10:44;11.43;;;4.97;;
77123;SDS011;66079;47.646;19.130;2023-06-14T00:13:47;10.83;;;5.07;;
77123;SDS011;66079;47.646;19.130;2023-06-14T00:16:49;8.32;;;4.57;;
77123;SDS011;66079;47.646;19.130;2023-06-14T00:19:54;10.57;;;5.80;;
77123;SDS011;66079;47.646;19.130;2023-06-14T00:22:59;8.55;;;5.60;;
77123;SDS011;66079;47.646;19.130;2023-06-14T00:26:02;8.37;;;5.67;;
77123;SDS011;66079;47.646;19.130;2023-06-14T00:29:05;8.07;;;4.90;;
77123;SDS011;66079;47.646;19.130;2023-06-14T00:32:07;9.18;;;5.40;;
77123;SDS011;66079;47.646;19.130;2023-06-14T00:35:10;10.60;;;5.82;;
77123;SDS011;66079;47.646;19.130;2023-06-14T00:38:13;8.70;;;5.30;;
77123;SDS011;66079;47.646;19.130;2023-06-14T00:41:16;9.03;;;5.60;;
77123;SDS011;66079;47.646;19.130;2023-06-14T00:44:18;9.10;;;5.47;;
77123;SDS011;66079;47.646;19.130;2023-06-14T00:47:21;10.68;;;5.60;;
77123;SDS011;66079;47.646;19.130;2023-06-14T00:50:24;9.95;;;5.75;;
77123;SDS011;66079;47.646;19.130;2023-06-14T00:53:27;11.10;;;5.72;;
77123;SDS011;66079;47.646;19.130;2023-06-14T00:56:29;9.73;;;5.43;;
77123;SDS011;66079;47.646;19.130;2023-06-14T00:59:32;9.13;;;5.43;;
77123;SDS011;66079;47.646;19.130;2023-06-14T01:02:38;10.40;;;5.15;;
77123;SDS011;66079;47.646;19.130;2023-06-14T01:05:44;9.00;;;5.68;;
77123;SDS011;66079;47.646;19.130;2023-06-14T01:08:50;11.02;;;5.63;;
77123;SDS011;66079;47.646;19.130;2023-06-14T01:12:12;8.90;;;5.53;;
77123;SDS011;66079;47.646;19.130;2023-06-14T01:15:20;9.67;;;5.63;;
77123;SDS011;66079;47.646;19.130;2023-06-14T01:18:23;8.70;;;5.78;;
77123;SDS011;66079;47.646;19.130;2023-06-14T01:21:28;10.18;;;6.07;;
77123;SDS011;66079;47.646;19.130;2023-06-14T01:24:32;9.45;;;5.30;;
77123;SDS011;66079;47.646;19.130;2023-06-14T01:27:36;10.90;;;5.97;;
77123;SDS011;66079;47.646;19.130;2023-06-14T01:30:40;9.83;;;6.03;;
77123;SDS011;66079;47.646;19.130;2023-06-14T01:33:49;10.18;;;6.18;;
77123;SDS011;66079;47.646;19.130;2023-06-14T01:36:53;8.52;;;5.70;;
77123;SDS011;66079;47.646;19.130;2023-06-14T01:39:57;10.65;;;5.88;;
77123;SDS011;66079;47.646;19.130;2023-06-14T01:43:00;10.20;;;5.50;;
77123;SDS011;66079;47.646;19.130;2023-06-14T01:46:04;8.87;;;5.87;;
77123;SDS011;66079;47.646;19.130;2023-06-14T01:49:08;10.75;;;6.13;;
77123;SDS011;66079;47.646;19.130;2023-06-14T01:52:11;9.48;;;6.13;;
77123;SDS011;66079;47.646;19.130;2023-06-14T01:55:14;10.98;;;6.30;;
77123;SDS011;66079;47.646;19.130;2023-06-14T01:58:21;9.03;;;6.07;;
77123;SDS011;66079;47.646;19.130;2023-06-14T02:01:23;10.87;;;5.83;;
77123;SDS011;66079;47.646;19.130;2023-06-14T02:04:26;10.02;;;6.22;;
77123;SDS011;66079;47.646;19.130;2023-06-14T02:07:29;10.52;;;6.03;;
77123;SDS011;66079;47.646;19.130;2023-06-14T02:10:32;11.48;;;6.35;;
77123;SDS011;66079;47.646;19.130;2023-06-14T02:13:35;10.70;;;6.17;;
77123;SDS011;66079;47.646;19.130;2023-06-14T02:16:38;11.33;;;6.13;;
77123;SDS011;66079;47.646;19.130;2023-06-14T02:19:41;10.35;;;6.25;;
77123;SDS011;66079;47.646;19.130;2023-06-14T02:22:44;11.77;;;6.82;;
77123;SDS011;66079;47.646;19.130;2023-06-14T02:25:47;9.98;;;6.00;;
77123;SDS011;66079;47.646;19.130;2023-06-14T02:28:50;11.10;;;6.50;;
77123;SDS011;66079;47.646;19.130;2023-06-14T02:31:53;10.50;;;6.10;;
77123;SDS011;66079;47.646;19.130;2023-06-14T02:34:55;15.90;;;6.45;;
77123;SDS011;66079;47.646;19.130;2023-06-14T02:37:59;14.25;;;6.53;;
77123;SDS011;66079;47.646;19.130;2023-06-14T02:41:02;12.30;;;6.63;;
77123;SDS011;66079;47.646;19.130;2023-06-14T02:44:06;11.93;;;6.07;;
77123;SDS011;66079;47.646;19.130;2023-06-14T02:47:09;11.07;;;6.37;;
77123;SDS011;66079;47.646;19.130;2023-06-14T02:50:11;11.30;;;6.60;;
77123;SDS011;66079;47.646;19.130;2023-06-14T02:53:14;10.38;;;5.93;;
77123;SDS011;66079;47.646;19.130;2023-06-14T02:56:18;10.77;;;5.70;;
77123;SDS011;66079;47.646;19.130;2023-06-14T02:59:22;10.93;;;6.33;;
77123;SDS011;66079;47.646;19.130;2023-06-14T03:02:28;11.50;;;6.23;;
77123;SDS011;66079;47.646;19.130;2023-06-14T03:05:31;11.45;;;5.82;;
77123;SDS011;66079;47.646;19.130;2023-06-14T03:08:35;12.02;;;6.40;;
77123;SDS011;66079;47.646;19.130;2023-06-14T03:11:47;9.63;;;5.60;;
77123;SDS011;66079;47.646;19.130;2023-06-14T03:14:51;10.90;;;5.83;;
77123;SDS011;66079;47.646;19.130;2023-06-14T03:17:57;12.00;;;6.27;;
77123;SDS011;66079;47.646;19.130;2023-06-14T03:21:02;9.85;;;5.43;;
77123;SDS011;66079;47.646;19.130;2023-06-14T03:24:06;9.15;;;5.63;;
77123;SDS011;66079;47.646;19.130;2023-06-14T03:27:09;9.95;;;6.03;;
77123;SDS011;66079;47.646;19.130;2023-06-14T03:30:16;11.07;;;5.57;;
77123;SDS011;66079;47.646;19.130;2023-06-14T03:33:22;9.53;;;5.63;;
77123;SDS011;66079;47.646;19.130;2023-06-14T03:36:25;11.50;;;5.70;;
77123;SDS011;66079;47.646;19.130;2023-06-14T03:39:29;9.80;;;5.65;;
77123;SDS011;66079;47.646;19.130;2023-06-14T03:42:32;8.57;;;4.88;;
77123;SDS011;66079;47.646;19.130;2023-06-14T03:45:34;8.53;;;5.03;;
77123;SDS011;66079;47.646;19.130;2023-06-14T03:48:37;13.47;;;5.63;;
77123;SDS011;66079;47.646;19.130;2023-06-14T03:51:42;9.50;;;5.47;;
77123;SDS011;66079;47.646;19.130;2023-06-14T03:54:44;9.90;;;5.82;;
77123;SDS011;66079;47.646;19.130;2023-06-14T03:57:52;12.02;;;6.63;;
77123;SDS011;66079;47.646;19.130;2023-06-14T04:00:56;9.67;;;5.63;;
77123;SDS011;66079;47.646;19.130;2023-06-14T04:03:59;10.23;;;5.53;;
77123;SDS011;66079;47.646;19.130;2023-06-14T04:07:02;9.80;;;5.63;;
77123;SDS011;66079;47.646;19.130;2023-06-14T04:10:06;16.35;;;5.55;;
77123;SDS011;66079;47.646;19.130;2023-06-14T04:13:10;8.68;;;5.38;;
77123;SDS011;66079;47.646;19.130;2023-06-14T04:16:15;10.17;;;5.30;;
77123;SDS011;66079;47.646;19.130;2023-06-14T04:19:18;9.90;;;5.67;;
77123;SDS011;66079;47.646;19.130;2023-06-14T04:22:22;11.13;;;5.38;;
77123;SDS011;66079;47.646;19.130;2023-06-14T04:25:25;10.43;;;5.50;;
77123;SDS011;66079;47.646;19.130;2023-06-14T04:28:30;9.60;;;5.55;;
77123;SDS011;66079;47.646;19.130;2023-06-14T04:31:35;11.50;;;5.73;;
77123;SDS011;66079;47.646;19.130;2023-06-14T04:34:43;10.43;;;5.40;;
77123;SDS011;66079;47.646;19.130;2023-06-14T04:37:46;9.45;;;5.65;;
77123;SDS011;66079;47.646;19.130;2023-06-14T04:40:49;10.30;;;5.70;;
77123;SDS011;66079;47.646;19.130;2023-06-14T04:43:57;12.40;;;6.30;;
77123;SDS011;66079;47.646;19.130;2023-06-14T04:47:06;11.93;;;5.80;;
77123;SDS011;66079;47.646;19.130;2023-06-14T04:50:10;9.30;;;5.93;;
77123;SDS011;66079;47.646;19.130;2023-06-14T04:53:15;8.88;;;5.75;;
77123;SDS011;66079;47.646;19.130;2023-06-14T04:56:19;8.90;;;5.40;;
77123;SDS011;66079;47.646;19.130;2023-06-14T04:59:24;9.35;;;5.55;;
77123;SDS011;66079;47.646;19.130;2023-06-14T05:02:28;10.00;;;5.50;;
77123;SDS011;66079;47.646;19.130;2023-06-14T05:05:34;10.27;;;5.70;;
77123;SDS011;66079;47.646;19.130;2023-06-14T05:08:37;8.57;;;5.32;;
77123;SDS011;66079;47.646;19.130;2023-06-14T05:11:40;8.15;;;5.10;;
77123;SDS011;66079;47.646;19.130;2023-06-14T05:14:45;11.05;;;5.47;;
77123;SDS011;66079;47.646;19.130;2023-06-14T05:17:49;10.87;;;6.27;;
77123;SDS011;66079;47.646;19.130;2023-06-14T05:20:57;10.40;;;5.20;;
77123;SDS011;66079;47.646;19.130;2023-06-14T05:24:00;10.60;;;5.35;;
77123;SDS011;66079;47.646;19.130;2023-06-14T05:27:03;9.32;;;5.45;;
77123;SDS011;66079;47.646;19.130;2023-06-14T05:30:07;8.15;;;5.40;;
77123;SDS011;66079;47.646;19.130;2023-06-14T05:33:11;10.00;;;6.33;;
77123;SDS011;66079;47.646;19.130;2023-06-14T05:36:16;11.83;;;6.07;;
77123;SDS011;66079;47.646;19.130;2023-06-14T05:39:19;10.85;;;5.93;;
77123;SDS011;66079;47.646;19.130;2023-06-14T05:42:22;8.85;;;5.72;;
77123;SDS011;66079;47.646;19.130;2023-06-14T05:45:25;11.57;;;5.40;;
77123;SDS011;66079;47.646;19.130;2023-06-14T05:48:28;10.27;;;5.60;;
77123;SDS011;66079;47.646;19.130;2023-06-14T05:51:34;8.00;;;5.30;;
77123;SDS011;66079;47.646;19.130;2023-06-14T05:54:38;12.77;;;5.43;;
77123;SDS011;66079;47.646;19.130;2023-06-14T05:57:41;10.35;;;5.90;;
77123;SDS011;66079;47.646;19.130;2023-06-14T06:00:45;10.65;;;5.70;;
77123;SDS011;66079;47.646;19.130;2023-06-14T06:03:48;8.83;;;5.60;;
77123;SDS011;66079;47.646;19.130;2023-06-14T06:06:51;8.83;;;5.73;;
77123;SDS011;66079;47.646;19.130;2023-06-14T06:09:54;8.65;;;4.88;;
77123;SDS011;66079;47.646;19.130;2023-06-14T06:13:01;12.18;;;5.18;;
77123;SDS011;66079;47.646;19.130;2023-06-14T06:16:04;8.13;;;4.95;;
77123;SDS011;66079;47.646;19.130;2023-06-14T06:19:08;9.30;;;4.83;;
77123;SDS011;66079;47.646;19.130;2023-06-14T06:22:11;8.90;;;5.33;;
77123;SDS011;66079;47.646;19.130;2023-06-14T06:25:15;8.93;;;4.65;;
77123;SDS011;66079;47.646;19.130;2023-06-14T06:28:20;8.60;;;4.93;;
77123;SDS011;66079;47.646;19.130;2023-06-14T06:31:26;8.65;;;5.03;;
77123;SDS011;66079;47.646;19.130;2023-06-14T06:34:30;10.47;;;4.93;;
77123;SDS011;66079;47.646;19.130;2023-06-14T06:37:33;8.10;;;5.10;;
77123;SDS011;66079;47.646;19.130;2023-06-14T06:40:39;8.13;;;4.70;;
77123;SDS011;66079;47.646;19.130;2023-06-14T06:43:42;10.18;;;4.80;;
77123;SDS011;66079;47.646;19.130;2023-06-14T06:46:51;8.77;;;4.57;;
77123;SDS011;66079;47.646;19.130;2023-06-14T06:49:54;10.57;;;5.43;;
77123;SDS011;66079;47.646;19.130;2023-06-14T06:52:57;6.73;;;4.80;;
77123;SDS011;66079;47.646;19.130;2023-06-14T06:56:00;9.95;;;4.97;;
77123;SDS011;66079;47.646;19.130;2023-06-14T06:59:03;8.73;;;5.18;;
77123;SDS011;66079;47.646;19.130;2023-06-14T07:02:07;12.80;;;5.60;;
77123;SDS011;66079;47.646;19.130;2023-06-14T07:05:10;8.80;;;5.20;;
77123;SDS011;66079;47.646;19.130;2023-06-14T07:08:14;10.70;;;5.43;;
77123;SDS011;66079;47.646;19.130;2023-06-14T07:11:18;8.40;;;4.85;;
77123;SDS011;66079;47.646;19.130;2023-06-14T07:14:22;8.57;;;4.90;;
77123;SDS011;66079;47.646;19.130;2023-06-14T07:17:25;8.55;;;5.07;;
77123;SDS011;66079;47.646;19.130;2023-06-14T07:20:28;7.80;;;4.93;;
77123;SDS011;66079;47.646;19.130;2023-06-14T07:23:33;9.23;;;5.27;;
77123;SDS011;66079;47.646;19.130;2023-06-14T07:26:37;8.05;;;5.25;;
77123;SDS011;66079;47.646;19.130;2023-06-14T07:29:40;10.25;;;5.47;;
77123;SDS011;66079;47.646;19.130;2023-06-14T07:32:43;10.77;;;5.70;;
77123;SDS011;66079;47.646;19.130;2023-06-14T07:35:47;8.63;;;5.47;;
77123;SDS011;66079;47.646;19.130;2023-06-14T07:38:51;9.87;;;5.47;;
77123;SDS011;66079;47.646;19.130;2023-06-14T07:41:55;8.88;;;5.38;;
77123;SDS011;66079;47.646;19.130;2023-06-14T07:44:58;8.82;;;4.93;;
77123;SDS011;66079;47.646;19.130;2023-06-14T07:48:01;11.88;;;5.32;;
77123;SDS011;66079;47.646;19.130;2023-06-14T07:51:04;10.23;;;5.60;;
77123;SDS011;66079;47.646;19.130;2023-06-14T07:54:06;9.43;;;5.00;;
77123;SDS011;66079;47.646;19.130;2023-06-14T07:57:11;10.60;;;5.07;;
77123;SDS011;66079;47.646;19.130;2023-06-14T08:00:15;9.20;;;4.63;;
77123;SDS011;66079;47.646;19.130;2023-06-14T08:03:19;8.82;;;4.93;;
77123;SDS011;66079;47.646;19.130;2023-06-14T08:06:22;7.20;;;4.97;;
77123;SDS011;66079;47.646;19.130;2023-06-14T08:09:25;8.33;;;4.97;;
77123;SDS011;66079;47.646;19.130;2023-06-14T08:12:30;11.13;;;4.70;;
77123;SDS011;66079;47.646;19.130;2023-06-14T08:15:33;7.88;;;4.82;;
77123;SDS011;66079;47.646;19.130;2023-06-14T08:18:36;11.02;;;4.95;;
77123;SDS011;66079;47.646;19.130;2023-06-14T08:21:40;6.80;;;4.60;;
77123;SDS011;66079;47.646;19.130;2023-06-14T08:24:43;8.93;;;4.70;;
77123;SDS011;66079;47.646;19.130;2023-06-14T08:27:46;6.32;;;4.45;;
77123;SDS011;66079;47.646;19.130;2023-06-14T08:30:49;6.65;;;3.90;;
77123;SDS011;66079;47.646;19.130;2023-06-14T08:33:53;8.95;;;4.57;;
77123;SDS011;66079;47.646;19.130;2023-06-14T08:36:56;9.37;;;4.87;;
77123;SDS011;66079;47.646;19.130;2023-06-14T08:39:59;8.07;;;4.20;;
77123;SDS011;66079;47.646;19.130;2023-06-14T08:43:04;10.60;;;4.88;;
77123;SDS011;66079;47.646;19.130;2023-06-14T08:46:08;6.28;;;4.70;;
77123;SDS011;66079;47.646;19.130;2023-06-14T08:49:13;9.55;;;4.63;;
77123;SDS011;66079;47.646;19.130;2023-06-14T08:52:19;7.87;;;4.40;;
77123;SDS011;66079;47.646;19.130;2023-06-14T08:55:23;10.87;;;5.00;;
77123;SDS011;66079;47.646;19.130;2023-06-14T08:58:29;8.48;;;4.65;;
77123;SDS011;66079;47.646;19.130;2023-06-14T09:01:34;7.38;;;4.22;;
77123;SDS011;66079;47.646;19.130;2023-06-14T09:04:38;6.00;;;3.95;;
77123;SDS011;66079;47.646;19.130;2023-06-14T09:07:41;5.60;;;3.93;;
77123;SDS011;66079;47.646;19.130;2023-06-14T09:10:45;6.47;;;3.93;;
77123;SDS011;66079;47.646;19.130;2023-06-14T09:13:48;10.68;;;3.97;;
77123;SDS011;66079;47.646;19.130;2023-06-14T09:16:52;5.93;;;3.95;;
77123;SDS011;66079;47.646;19.130;2023-06-14T09:19:55;5.10;;;3.95;;
77123;SDS011;66079;47.646;19.130;2023-06-14T09:23:00;5.93;;;3.97;;
77123;SDS011;66079;47.646;19.130;2023-06-14T09:26:14;7.37;;;3.70;;
77123;SDS011;66079;47.646;19.130;2023-06-14T09:29:19;7.05;;;3.80;;
77123;SDS011;66079;47.646;19.130;2023-06-14T09:32:23;5.03;;;3.80;;
77123;SDS011;66079;47.646;19.130;2023-06-14T09:35:30;7.00;;;4.10;;
77123;SDS011;66079;47.646;19.130;2023-06-14T09:38:34;10.30;;;4.50;;
77123;SDS011;66079;47.646;19.130;2023-06-14T09:41:38;6.67;;;4.10;;
77123;SDS011;66079;47.646;19.130;2023-06-14T09:44:43;5.32;;;3.75;;
77123;SDS011;66079;47.646;19.130;2023-06-14T09:47:49;6.63;;;4.18;;
77123;SDS011;66079;47.646;19.130;2023-06-14T09:51:11;6.18;;;4.13;;
77123;SDS011;66079;47.646;19.130;2023-06-14T09:54:20;12.20;;;3.97;;
77123;SDS011;66079;47.646;19.130;2023-06-14T09:57:27;6.80;;;4.00;;
77123;SDS011;66079;47.646;19.130;2023-06-14T10:00:34;9.15;;;4.15;;
77123;SDS011;66079;47.646;19.130;2023-06-14T10:03:37;7.22;;;4.38;;
77123;SDS011;66079;47.646;19.130;2023-06-14T10:07:01;8.50;;;4.55;;
77123;SDS011;66079;47.646;19.130;2023-06-14T10:10:06;5.80;;;4.03;;
77123;SDS011;66079;47.646;19.130;2023-06-14T10:13:11;7.07;;;3.90;;
77123;SDS011;66079;47.646;19.130;2023-06-14T10:16:16;5.78;;;3.20;;
77123;SDS011;66079;47.646;19.130;2023-06-14T10:19:25;4.85;;;3.50;;
77123;SDS011;66079;47.646;19.130;2023-06-14T10:22:39;6.68;;;3.70;;
77123;SDS011;66079;47.646;19.130;2023-06-14T10:25:58;4.80;;;2.97;;
77123;SDS011;66079;47.646;19.130;2023-06-14T10:29:08;7.20;;;3.43;;
77123;SDS011;66079;47.646;19.130;2023-06-14T10:32:11;8.63;;;3.15;;
77123;SDS011;66079;47.646;19.130;2023-06-14T10:35:17;4.35;;;3.20;;
77123;SDS011;66079;47.646;19.130;2023-06-14T10:38:29;7.05;;;3.28;;
77123;SDS011;66079;47.646;19.130;2023-06-14T10:41:37;7.10;;;2.90;;
77123;SDS011;66079;47.646;19.130;2023-06-14T10:44:45;4.63;;;2.97;;
77123;SDS011;66079;47.646;19.130;2023-06-14T10:47:57;4.15;;;2.88;;
77123;SDS011;66079;47.646;19.130;2023-06-14T10:51:00;4.28;;;2.70;;
77123;SDS011;66079;47.646;19.130;2023-06-14T10:54:05;2.60;;;2.25;;
77123;SDS011;66079;47.646;19.130;2023-06-14T10:57:15;3.73;;;2.30;;
77123;SDS011;66079;47.646;19.130;2023-06-14T11:00:18;2.90;;;2.30;;
77123;SDS011;66079;47.646;19.130;2023-06-14T11:06:52;3.47;;;2.38;;
77123;SDS011;66079;47.646;19.130;2023-06-14T11:10:17;6.45;;;2.67;;
77123;SDS011;66079;47.646;19.130;2023-06-14T11:13:29;6.03;;;2.90;;
77123;SDS011;66079;47.646;19.130;2023-06-14T11:16:33;4.40;;;2.97;;
77123;SDS011;66079;47.646;19.130;2023-06-14T11:19:36;4.32;;;2.75;;
77123;SDS011;66079;47.646;19.130;2023-06-14T11:22:40;3.97;;;2.90;;
77123;SDS011;66079;47.646;19.130;2023-06-14T11:25:49;4.80;;;2.85;;
77123;SDS011;66079;47.646;19.130;2023-06-14T11:28:55;6.03;;;2.90;;
77123;SDS011;66079;47.646;19.130;2023-06-14T11:32:02;4.67;;;2.80;;
77123;SDS011;66079;47.646;19.130;2023-06-14T11:35:07;5.53;;;3.25;;
77123;SDS011;66079;47.646;19.130;2023-06-14T11:38:11;4.72;;;2.90;;
77123;SDS011;66079;47.646;19.130;2023-06-14T11:41:14;3.53;;;3.20;;
77123;SDS011;66079;47.646;19.130;2023-06-14T11:44:17;3.27;;;2.80;;
77123;SDS011;66079;47.646;19.130;2023-06-14T11:47:21;8.23;;;3.43;;
77123;SDS011;66079;47.646;19.130;2023-06-14T11:50:25;2.97;;;2.65;;
77123;SDS011;66079;47.646;19.130;2023-06-14T11:53:30;4.03;;;2.88;;
77123;SDS011;66079;47.646;19.130;2023-06-14T11:56:33;5.50;;;3.22;;
77123;SDS011;66079;47.646;19.130;2023-06-14T11:59:39;3.53;;;3.23;;
77123;SDS011;66079;47.646;19.130;2023-06-14T12:02:42;8.20;;;2.90;;
77123;SDS011;66079;47.646;19.130;2023-06-14T12:05:45;3.80;;;2.75;;
77123;SDS011;66079;47.646;19.130;2023-06-14T12:08:49;4.50;;;2.72;;
77123;SDS011;66079;47.646;19.130;2023-06-14T12:11:59;3.38;;;3.00;;
77123;SDS011;66079;47.646;19.130;2023-06-14T12:15:06;3.50;;;3.03;;
77123;SDS011;66079;47.646;19.130;2023-06-14T12:18:10;5.03;;;2.80;;
77123;SDS011;66079;47.646;19.130;2023-06-14T12:21:13;4.97;;;2.97;;
77123;SDS011;66079;47.646;19.130;2023-06-14T12:24:16;4.75;;;2.42;;
77123;SDS011;66079;47.646;19.130;2023-06-14T12:27:20;3.03;;;2.60;;
77123;SDS011;66079;47.646;19.130;2023-06-14T12:30:26;3.43;;;2.60;;
77123;SDS011;66079;47.646;19.130;2023-06-14T12:33:29;3.50;;;2.50;;
77123;SDS011;66079;47.646;19.130;2023-06-14T12:36:32;3.35;;;2.42;;
77123;SDS011;66079;47.646;19.130;2023-06-14T12:39:36;5.22;;;3.13;;
77123;SDS011;66079;47.646;19.130;2023-06-14T12:42:41;3.72;;;2.70;;
77123;SDS011;66079;47.646;19.130;2023-06-14T12:45:44;3.33;;;2.93;;
77123;SDS011;66079;47.646;19.130;2023-06-14T12:48:47;4.17;;;2.40;;
77123;SDS011;66079;47.646;19.130;2023-06-14T12:51:49;3.00;;;2.50;;
77123;SDS011;66079;47.646;19.130;2023-06-14T12:54:52;4.55;;;2.50;;
77123;SDS011;66079;47.646;19.130;2023-06-14T12:57:54;2.90;;;2.60;;
77123;SDS011;66079;47.646;19.130;2023-06-14T13:00:57;3.03;;;2.50;;
77123;SDS011;66079;47.646;19.130;2023-06-14T13:03:59;4.47;;;2.30;;
77123;SDS011;66079;47.646;19.130;2023-06-14T13:07:03;3.17;;;2.47;;
77123;SDS011;66079;47.646;19.130;2023-06-14T13:10:08;4.18;;;2.50;;
77123;SDS011;66079;47.646;19.130;2023-06-14T13:13:11;2.60;;;2.15;;
77123;SDS011;66079;47.646;19.130;2023-06-14T13:16:15;3.23;;;2.60;;
77123;SDS011;66079;47.646;19.130;2023-06-14T13:19:18;4.20;;;2.60;;
77123;SDS011;66079;47.646;19.130;2023-06-14T13:22:21;4.40;;;2.53;;
77123;SDS011;66079;47.646;19.130;2023-06-14T13:25:24;4.43;;;2.50;;
77123;SDS011;66079;47.646;19.130;2023-06-14T13:28:26;4.05;;;2.53;;
77123;SDS011;66079;47.646;19.130;2023-06-14T13:31:29;5.77;;;2.50;;
77123;SDS011;66079;47.646;19.130;2023-06-14T13:34:31;4.20;;;2.57;;
77123;SDS011;66079;47.646;19.130;2023-06-14T13:37:34;7.45;;;3.53;;
77123;SDS011;66079;47.646;19.130;2023-06-14T13:40:37;3.72;;;2.60;;
77123;SDS011;66079;47.646;19.130;2023-06-14T13:43:40;5.68;;;2.33;;
77123;SDS011;66079;47.646;19.130;2023-06-14T13:46:42;2.90;;;2.20;;
77123;SDS011;66079;47.646;19.130;2023-06-14T13:49:45;4.27;;;2.37;;
77123;SDS011;66079;47.646;19.130;2023-06-14T13:52:48;3.17;;;2.40;;
77123;SDS011;66079;47.646;19.130;2023-06-14T13:55:50;3.60;;;2.15;;
77123;SDS011;66079;47.646;19.130;2023-06-14T13:58:54;2.80;;;2.00;;
77123;SDS011;66079;47.646;19.130;2023-06-14T14:01:57;7.03;;;2.57;;
77123;SDS011;66079;47.646;19.130;2023-06-14T14:04:59;10.13;;;2.60;;
77123;SDS011;66079;47.646;19.130;2023-06-14T14:08:03;4.22;;;2.28;;
77123;SDS011;66079;47.646;19.130;2023-06-14T14:11:06;3.70;;;2.40;;
77123;SDS011;66079;47.646;19.130;2023-06-14T14:14:09;3.67;;;2.30;;
77123;SDS011;66079;47.646;19.130;2023-06-14T14:17:12;3.43;;;2.30;;
77123;SDS011;66079;47.646;19.130;2023-06-14T14:20:15;5.00;;;2.50;;
77123;SDS011;66079;47.646;19.130;2023-06-14T14:23:19;5.07;;;2.60;;
77123;SDS011;66079;47.646;19.130;2023-06-14T14:26:22;3.13;;;2.33;;
77123;SDS011;66079;47.646;19.130;2023-06-14T14:29:25;4.10;;;2.35;;
77123;SDS011;66079;47.646;19.130;2023-06-14T14:32:31;3.63;;;2.30;;
77123;SDS011;66079;47.646;19.130;2023-06-14T14:35:34;2.50;;;2.20;;
77123;SDS011;66079;47.646;19.130;2023-06-14T14:38:36;2.47;;;2.28;;
77123;SDS011;66079;47.646;19.130;2023-06-14T14:41:39;3.97;;;2.65;;
77123;SDS011;66079;47.646;19.130;2023-06-14T14:44:43;2.97;;;2.28;;
77123;SDS011;66079;47.646;19.130;2023-06-14T14:47:47;4.83;;;2.80;;
77123;SDS011;66079;47.646;19.130;2023-06-14T14:50:49;3.27;;;2.37;;
77123;SDS011;66079;47.646;19.130;2023-06-14T14:53:52;4.90;;;2.22;;
77123;SDS011;66079;47.646;19.130;2023-06-14T14:56:58;3.55;;;2.28;;
77123;SDS011;66079;47.646;19.130;2023-06-14T15:00:00;4.68;;;2.60;;
77123;SDS011;66079;47.646;19.130;2023-06-14T15:03:03;4.80;;;2.60;;
77123;SDS011;66079;47.646;19.130;2023-06-14T15:06:06;5.83;;;2.50;;
77123;SDS011;66079;47.646;19.130;2023-06-14T15:09:08;2.65;;;2.45;;
77123;SDS011;66079;47.646;19.130;2023-06-14T15:12:11;3.95;;;2.35;;
77123;SDS011;66079;47.646;19.130;2023-06-14T15:15:13;4.60;;;2.45;;
77123;SDS011;66079;47.646;19.130;2023-06-14T15:18:16;4.33;;;2.57;;
77123;SDS011;66079;47.646;19.130;2023-06-14T15:21:19;3.10;;;2.40;;
77123;SDS011;66079;47.646;19.130;2023-06-14T15:24:21;2.95;;;2.40;;
77123;SDS011;66079;47.646;19.130;2023-06-14T15:27:42;5.80;;;2.35;;
77123;SDS011;66079;47.646;19.130;2023-06-14T15:30:45;3.67;;;2.30;;
77123;SDS011;66079;47.646;19.130;2023-06-14T15:33:48;4.33;;;2.00;;
77123;SDS011;66079;47.646;19.130;2023-06-14T15:36:51;3.13;;;2.40;;
77123;SDS011;66079;47.646;19.130;2023-06-14T15:39:53;4.90;;;2.33;;
77123;SDS011;66079;47.646;19.130;2023-06-14T15:42:56;4.65;;;2.30;;
77123;SDS011;66079;47.646;19.130;2023-06-14T15:45:58;4.55;;;2.50;;
77123;SDS011;66079;47.646;19.130;2023-06-14T15:49:01;6.37;;;2.17;;
77123;SDS011;66079;47.646;19.130;2023-06-14T15:52:05;3.77;;;1.90;;
77123;SDS011;66079;47.646;19.130;2023-06-14T15:55:08;3.95;;;2.20;;
77123;SDS011;66079;47.646;19.130;2023-06-14T15:58:10;3.65;;;2.15;;
77123;SDS011;66079;47.646;19.130;2023-06-14T16:01:13;3.47;;;2.25;;
77123;SDS011;66079;47.646;19.130;2023-06-14T16:04:16;4.90;;;1.90;;
77123;SDS011;66079;47.646;19.130;2023-06-14T16:07:18;6.03;;;2.43;;
77123;SDS011;66079;47.646;19.130;2023-06-14T16:10:21;3.38;;;1.92;;
77123;SDS011;66079;47.646;19.130;2023-06-14T16:13:24;5.43;;;2.25;;
77123;SDS011;66079;47.646;19.130;2023-06-14T16:16:26;4.03;;;2.17;;
77123;SDS011;66079;47.646;19.130;2023-06-14T16:19:29;3.93;;;1.90;;
77123;SDS011;66079;47.646;19.130;2023-06-14T16:22:32;3.53;;;2.10;;
77123;SDS011;66079;47.646;19.130;2023-06-14T16:25:34;2.63;;;2.00;;
77123;SDS011;66079;47.646;19.130;2023-06-14T16:28:37;3.00;;;1.92;;
77123;SDS011;66079;47.646;19.130;2023-06-14T16:31:44;3.35;;;2.22;;
77123;SDS011;66079;47.646;19.130;2023-06-14T16:34:46;3.57;;;2.20;;
77123;SDS011;66079;47.646;19.130;2023-06-14T16:37:49;3.73;;;2.00;;
77123;SDS011;66079;47.646;19.130;2023-06-14T16:40:51;4.28;;;2.40;;
77123;SDS011;66079;47.646;19.130;2023-06-14T16:43:54;4.43;;;2.00;;
77123;SDS011;66079;47.646;19.130;2023-06-14T16:46:57;5.15;;;2.20;;
77123;SDS011;66079;47.646;19.130;2023-06-14T16:50:02;3.80;;;1.90;;
77123;SDS011;66079;47.646;19.130;2023-06-14T16:53:05;4.03;;;2.10;;
77123;SDS011;66079;47.646;19.130;2023-06-14T16:56:08;3.17;;;2.15;;
77123;SDS011;66079;47.646;19.130;2023-06-14T16:59:10;4.03;;;1.98;;
77123;SDS011;66079;47.646;19.130;2023-06-14T17:02:13;3.08;;;2.00;;
77123;SDS011;66079;47.646;19.130;2023-06-14T17:05:16;2.80;;;1.97;;
77123;SDS011;66079;47.646;19.130;2023-06-14T17:08:19;4.47;;;2.23;;
77123;SDS011;66079;47.646;19.130;2023-06-14T17:11:22;4.63;;;2.10;;
77123;SDS011;66079;47.646;19.130;2023-06-14T17:14:25;5.50;;;2.28;;
77123;SDS011;66079;47.646;19.130;2023-06-14T17:17:27;4.65;;;2.05;;
77123;SDS011;66079;47.646;19.130;2023-06-14T17:20:30;5.77;;;2.03;;
77123;SDS011;66079;47.646;19.130;2023-06-14T17:23:32;3.90;;;2.13;;
77123;SDS011;66079;47.646;19.130;2023-06-14T17:26:36;2.63;;;2.10;;
77123;SDS011;66079;47.646;19.130;2023-06-14T17:29:39;3.00;;;2.00;;
77123;SDS011;66079;47.646;19.130;2023-06-14T17:32:41;3.33;;;2.42;;
77123;SDS011;66079;47.646;19.130;2023-06-14T17:35:44;3.33;;;2.33;;
77123;SDS011;66079;47.646;19.130;2023-06-14T17:38:47;4.43;;;2.07;;
77123;SDS011;66079;47.646;19.130;2023-06-14T17:41:50;3.38;;;2.00;;
77123;SDS011;66079;47.646;19.130;2023-06-14T17:44:52;4.90;;;2.10;;
77123;SDS011;66079;47.646;19.130;2023-06-14T17:47:57;2.88;;;2.10;;
77123;SDS011;66079;47.646;19.130;2023-06-14T17:51:00;2.97;;;2.30;;
77123;SDS011;66079;47.646;19.130;2023-06-14T17:54:06;3.97;;;2.40;;
77123;SDS011;66079;47.646;19.130;2023-06-14T17:57:09;2.80;;;2.20;;
77123;SDS011;66079;47.646;19.130;2023-06-14T18:00:13;4.13;;;2.50;;
77123;SDS011;66079;47.646;19.130;2023-06-14T18:03:17;3.78;;;2.30;;
77123;SDS011;66079;47.646;19.130;2023-06-14T18:06:20;4.70;;;2.70;;
77123;SDS011;66079;47.646;19.130;2023-06-14T18:09:23;3.83;;;2.50;;
77123;SDS011;66079;47.646;19.130;2023-06-14T18:12:26;4.72;;;2.63;;